Barry, Texas
Current Conditions -  °F | °C
As of 7:53 PM on Tuesday 25 Nov 2014 (Local Time) from KCRS Reporting Station
Clear Clear  
Wind Chill: 47°   Ceiling: Unl
Heat Index: 49°   Visibility: 10mi
Dew Point: 28°   Wind: 6mph
Humidity: 44%   Direction: 210°SSW
Pressure: 30.2"   Gusts: NA
Location:  32.1°N, 96.64°W
Report Text: KCRS 260153Z AUTO 21005KT 10SM CLR 09/M02 A3020 RMK AO2 SLP227 T00941022
Loading
Personal Weather Stations






























Interactive Weather Map New forecast layout! Learn more

10-Day Weather Forecast

Advertisements
Track Severe Weather on mobile